Авиационная погода в Самсуне

Регион: 
Погода METAR: 
LTFH 061050Z 20013KT 9999 FEW036 22/05 Q1015 NOSIG
Время наблюдения
2021-12-06T10:50:00Z
Температура C
22.0
Точка росы
5.0
Направление ветра
200
Скорость ветра (узлы)
13
Метео видимость
6.21
Явления погоды
Условия полета
VFR